VRMM/MLE METAR and TAF weather

Enter ICAO airport designator
Station Type Date Time Source
VRMM METAR 2019/08/22 19:00 UTC NOAA

VRMM 221900Z 23006KT 9999 FEW018TCU BKN270 29/24 Q1012 NOSIG


Station Type Date Time Source
VRMM Decoded METAR 2019/08/22 19:00 UTC NOAA

Station name not available
Aug 22, 2019 - 03:00 PM EDT / 2019.08.22 1900 UTC
Wind: from the SW (230 degrees) at 7 MPH (6 KT):0
Visibility: greater than 7 mile(s):0
Sky conditions: mostly cloudy
Weather: Towering cumulus clouds observed
Temperature: 84 F (29 C)
Dew Point: 75 F (24 C)
Relative Humidity: 74%
Pressure (altimeter): 29.88 in. Hg (1012 hPa)
ob: VRMM 221900Z 23006KT 9999 FEW018TCU BKN270 29/24 Q1012 NOSIG
cycle: 19

Station Type Date Time Source
VRMM TAF 2019/08/22 18:24 UTC NOAA

TAF TAF VRMM 221700Z 2218/2324 29008KT 9999 FEW018
TEMPO 2219/2224 5000 -TSRA FEW017CB

Example: see airport list